sensor_id;sensor_type;location;lat;lon;timestamp;P1;durP1;ratioP1;P2;durP2;ratioP2
30185;SDS011;31152;49.190;8.122;2023-03-14T00:01:58;1.83;;;0.70;;
30185;SDS011;31152;49.190;8.122;2023-03-14T00:04:25;1.25;;;0.90;;
30185;SDS011;31152;49.190;8.122;2023-03-14T00:06:52;1.92;;;0.77;;
30185;SDS011;31152;49.190;8.122;2023-03-14T00:09:20;1.50;;;0.70;;
30185;SDS011;31152;49.190;8.122;2023-03-14T00:11:49;2.53;;;0.85;;
30185;SDS011;31152;49.190;8.122;2023-03-14T00:14:16;1.70;;;0.70;;
30185;SDS011;31152;49.190;8.122;2023-03-14T00:16:45;1.13;;;0.70;;
30185;SDS011;31152;49.190;8.122;2023-03-14T00:19:12;1.25;;;0.63;;
30185;SDS011;31152;49.190;8.122;2023-03-14T00:21:39;2.38;;;0.60;;
30185;SDS011;31152;49.190;8.122;2023-03-14T00:24:06;3.60;;;0.80;;
30185;SDS011;31152;49.190;8.122;2023-03-14T00:26:36;1.17;;;0.88;;
30185;SDS011;31152;49.190;8.122;2023-03-14T00:29:02;2.38;;;0.90;;
30185;SDS011;31152;49.190;8.122;2023-03-14T00:31:29;1.60;;;0.70;;
30185;SDS011;31152;49.190;8.122;2023-03-14T00:33:58;2.65;;;0.88;;
30185;SDS011;31152;49.190;8.122;2023-03-14T00:36:25;1.80;;;0.80;;
30185;SDS011;31152;49.190;8.122;2023-03-14T00:38:52;3.22;;;0.60;;
30185;SDS011;31152;49.190;8.122;2023-03-14T00:41:22;1.45;;;0.80;;
30185;SDS011;31152;49.190;8.122;2023-03-14T00:43:49;3.38;;;0.80;;
30185;SDS011;31152;49.190;8.122;2023-03-14T00:46:18;3.58;;;0.80;;
30185;SDS011;31152;49.190;8.122;2023-03-14T00:48:45;5.10;;;0.95;;
30185;SDS011;31152;49.190;8.122;2023-03-14T00:51:15;1.27;;;0.90;;
30185;SDS011;31152;49.190;8.122;2023-03-14T00:53:42;2.70;;;0.70;;
30185;SDS011;31152;49.190;8.122;2023-03-14T00:56:12;3.15;;;0.70;;
30185;SDS011;31152;49.190;8.122;2023-03-14T00:58:39;2.53;;;0.63;;
30185;SDS011;31152;49.190;8.122;2023-03-14T01:01:07;2.00;;;0.80;;
30185;SDS011;31152;49.190;8.122;2023-03-14T01:03:37;1.17;;;0.77;;
30185;SDS011;31152;49.190;8.122;2023-03-14T01:06:14;2.47;;;0.70;;
30185;SDS011;31152;49.190;8.122;2023-03-14T01:08:43;2.13;;;0.90;;
30185;SDS011;31152;49.190;8.122;2023-03-14T01:11:12;2.40;;;0.80;;
30185;SDS011;31152;49.190;8.122;2023-03-14T01:13:40;1.42;;;0.75;;
30185;SDS011;31152;49.190;8.122;2023-03-14T01:16:09;3.03;;;0.85;;
30185;SDS011;31152;49.190;8.122;2023-03-14T01:18:40;3.50;;;0.70;;
30185;SDS011;31152;49.190;8.122;2023-03-14T01:21:14;1.23;;;0.60;;
30185;SDS011;31152;49.190;8.122;2023-03-14T01:23:49;1.90;;;0.68;;
30185;SDS011;31152;49.190;8.122;2023-03-14T01:26:18;3.17;;;1.00;;
30185;SDS011;31152;49.190;8.122;2023-03-14T01:28:47;2.60;;;0.75;;
30185;SDS011;31152;49.190;8.122;2023-03-14T01:31:15;1.58;;;0.80;;
30185;SDS011;31152;49.190;8.122;2023-03-14T01:33:42;1.52;;;0.70;;
30185;SDS011;31152;49.190;8.122;2023-03-14T01:36:09;2.58;;;0.88;;
30185;SDS011;31152;49.190;8.122;2023-03-14T01:38:37;1.77;;;0.70;;
30185;SDS011;31152;49.190;8.122;2023-03-14T01:41:06;2.03;;;0.80;;
30185;SDS011;31152;49.190;8.122;2023-03-14T01:43:37;5.15;;;1.17;;
30185;SDS011;31152;49.190;8.122;2023-03-14T01:48:50;3.65;;;0.70;;
30185;SDS011;31152;49.190;8.122;2023-03-14T01:51:25;3.97;;;0.90;;
30185;SDS011;31152;49.190;8.122;2023-03-14T01:54:13;5.93;;;0.70;;
30185;SDS011;31152;49.190;8.122;2023-03-14T01:56:55;2.15;;;0.73;;
30185;SDS011;31152;49.190;8.122;2023-03-14T01:59:28;2.63;;;0.90;;
30185;SDS011;31152;49.190;8.122;2023-03-14T02:01:56;4.40;;;1.10;;
30185;SDS011;31152;49.190;8.122;2023-03-14T02:04:23;3.40;;;0.80;;
30185;SDS011;31152;49.190;8.122;2023-03-14T02:06:59;3.97;;;1.15;;
30185;SDS011;31152;49.190;8.122;2023-03-14T02:09:50;3.35;;;1.00;;
30185;SDS011;31152;49.190;8.122;2023-03-14T02:12:18;2.92;;;0.90;;
30185;SDS011;31152;49.190;8.122;2023-03-14T02:14:49;5.63;;;1.25;;
30185;SDS011;31152;49.190;8.122;2023-03-14T02:17:17;3.13;;;1.20;;
30185;SDS011;31152;49.190;8.122;2023-03-14T02:22:27;4.68;;;1.25;;
30185;SDS011;31152;49.190;8.122;2023-03-14T02:27:42;6.57;;;1.17;;
30185;SDS011;31152;49.190;8.122;2023-03-14T02:30:14;4.25;;;1.23;;
30185;SDS011;31152;49.190;8.122;2023-03-14T02:32:44;2.95;;;0.98;;
30185;SDS011;31152;49.190;8.122;2023-03-14T02:35:14;7.80;;;1.17;;
30185;SDS011;31152;49.190;8.122;2023-03-14T02:40:21;6.72;;;1.25;;
30185;SDS011;31152;49.190;8.122;2023-03-14T02:42:48;5.82;;;1.00;;
30185;SDS011;31152;49.190;8.122;2023-03-14T02:47:43;3.63;;;1.55;;
30185;SDS011;31152;49.190;8.122;2023-03-14T02:50:16;2.90;;;1.17;;
30185;SDS011;31152;49.190;8.122;2023-03-14T02:52:46;4.65;;;1.00;;
30185;SDS011;31152;49.190;8.122;2023-03-14T02:55:13;4.78;;;1.05;;
30185;SDS011;31152;49.190;8.122;2023-03-14T02:57:42;5.30;;;1.30;;
30185;SDS011;31152;49.190;8.122;2023-03-14T03:00:09;3.67;;;1.45;;
30185;SDS011;31152;49.190;8.122;2023-03-14T03:02:36;6.10;;;1.05;;
30185;SDS011;31152;49.190;8.122;2023-03-14T03:05:05;6.53;;;1.27;;
30185;SDS011;31152;49.190;8.122;2023-03-14T03:07:32;3.95;;;1.85;;
30185;SDS011;31152;49.190;8.122;2023-03-14T03:09:59;4.57;;;1.10;;
30185;SDS011;31152;49.190;8.122;2023-03-14T03:12:26;1.95;;;0.80;;
30185;SDS011;31152;49.190;8.122;2023-03-14T03:14:52;5.32;;;1.10;;
30185;SDS011;31152;49.190;8.122;2023-03-14T03:17:19;7.32;;;1.00;;
30185;SDS011;31152;49.190;8.122;2023-03-14T03:19:46;4.38;;;0.90;;
30185;SDS011;31152;49.190;8.122;2023-03-14T03:22:17;5.00;;;1.02;;
30185;SDS011;31152;49.190;8.122;2023-03-14T03:24:43;6.88;;;1.17;;
30185;SDS011;31152;49.190;8.122;2023-03-14T03:27:10;4.82;;;1.10;;
30185;SDS011;31152;49.190;8.122;2023-03-14T03:29:37;6.28;;;0.98;;
30185;SDS011;31152;49.190;8.122;2023-03-14T03:32:03;4.65;;;1.10;;
30185;SDS011;31152;49.190;8.122;2023-03-14T03:34:30;4.38;;;1.08;;
30185;SDS011;31152;49.190;8.122;2023-03-14T03:36:57;7.72;;;1.50;;
30185;SDS011;31152;49.190;8.122;2023-03-14T03:39:24;7.00;;;1.17;;
30185;SDS011;31152;49.190;8.122;2023-03-14T03:41:51;4.82;;;1.45;;
30185;SDS011;31152;49.190;8.122;2023-03-14T03:44:18;6.45;;;0.88;;
30185;SDS011;31152;49.190;8.122;2023-03-14T03:46:44;3.30;;;0.98;;
30185;SDS011;31152;49.190;8.122;2023-03-14T03:49:13;5.10;;;1.10;;
30185;SDS011;31152;49.190;8.122;2023-03-14T03:51:40;6.07;;;0.90;;
30185;SDS011;31152;49.190;8.122;2023-03-14T03:54:11;9.13;;;1.00;;
30185;SDS011;31152;49.190;8.122;2023-03-14T03:56:40;5.60;;;1.20;;
30185;SDS011;31152;49.190;8.122;2023-03-14T03:59:07;4.43;;;1.00;;
30185;SDS011;31152;49.190;8.122;2023-03-14T04:01:33;7.47;;;1.45;;
30185;SDS011;31152;49.190;8.122;2023-03-14T04:04:00;4.68;;;0.90;;
30185;SDS011;31152;49.190;8.122;2023-03-14T04:06:27;3.60;;;1.00;;
30185;SDS011;31152;49.190;8.122;2023-03-14T04:08:54;6.10;;;1.33;;
30185;SDS011;31152;49.190;8.122;2023-03-14T04:11:21;1.98;;;0.70;;
30185;SDS011;31152;49.190;8.122;2023-03-14T04:13:47;7.20;;;0.80;;
30185;SDS011;31152;49.190;8.122;2023-03-14T04:16:16;2.50;;;0.65;;
30185;SDS011;31152;49.190;8.122;2023-03-14T04:18:44;3.85;;;0.70;;
30185;SDS011;31152;49.190;8.122;2023-03-14T04:21:11;6.22;;;0.90;;
30185;SDS011;31152;49.190;8.122;2023-03-14T04:23:40;5.38;;;0.70;;
30185;SDS011;31152;49.190;8.122;2023-03-14T04:26:15;2.67;;;0.70;;
30185;SDS011;31152;49.190;8.122;2023-03-14T04:28:42;4.78;;;0.77;;
30185;SDS011;31152;49.190;8.122;2023-03-14T04:31:15;7.13;;;1.10;;
30185;SDS011;31152;49.190;8.122;2023-03-14T04:33:46;3.70;;;0.80;;
30185;SDS011;31152;49.190;8.122;2023-03-14T04:36:13;1.58;;;0.60;;
30185;SDS011;31152;49.190;8.122;2023-03-14T04:38:40;5.50;;;0.70;;
30185;SDS011;31152;49.190;8.122;2023-03-14T04:41:07;6.00;;;0.98;;
30185;SDS011;31152;49.190;8.122;2023-03-14T04:43:36;5.28;;;0.80;;
30185;SDS011;31152;49.190;8.122;2023-03-14T04:46:03;3.28;;;0.50;;
30185;SDS011;31152;49.190;8.122;2023-03-14T04:48:31;6.50;;;0.82;;
30185;SDS011;31152;49.190;8.122;2023-03-14T04:50:58;5.93;;;1.30;;
30185;SDS011;31152;49.190;8.122;2023-03-14T04:53:25;6.63;;;1.27;;
30185;SDS011;31152;49.190;8.122;2023-03-14T04:55:53;4.95;;;0.90;;
30185;SDS011;31152;49.190;8.122;2023-03-14T04:58:22;2.67;;;0.60;;
30185;SDS011;31152;49.190;8.122;2023-03-14T05:00:49;4.93;;;1.27;;
30185;SDS011;31152;49.190;8.122;2023-03-14T05:03:17;5.05;;;0.80;;
30185;SDS011;31152;49.190;8.122;2023-03-14T05:05:45;3.08;;;0.60;;
30185;SDS011;31152;49.190;8.122;2023-03-14T05:08:12;5.40;;;0.60;;
30185;SDS011;31152;49.190;8.122;2023-03-14T05:10:39;2.63;;;0.52;;
30185;SDS011;31152;49.190;8.122;2023-03-14T05:13:06;4.90;;;0.77;;
30185;SDS011;31152;49.190;8.122;2023-03-14T05:15:32;4.00;;;0.70;;
30185;SDS011;31152;49.190;8.122;2023-03-14T05:17:59;1.83;;;0.50;;
30185;SDS011;31152;49.190;8.122;2023-03-14T05:20:26;8.02;;;1.20;;
30185;SDS011;31152;49.190;8.122;2023-03-14T05:22:56;5.32;;;0.70;;
30185;SDS011;31152;49.190;8.122;2023-03-14T05:25:22;7.05;;;0.90;;
30185;SDS011;31152;49.190;8.122;2023-03-14T05:27:49;5.60;;;0.80;;
30185;SDS011;31152;49.190;8.122;2023-03-14T05:30:16;5.25;;;1.17;;
30185;SDS011;31152;49.190;8.122;2023-03-14T05:32:42;2.20;;;0.60;;
30185;SDS011;31152;49.190;8.122;2023-03-14T05:35:09;5.43;;;0.70;;
30185;SDS011;31152;49.190;8.122;2023-03-14T05:37:36;4.80;;;0.70;;
30185;SDS011;31152;49.190;8.122;2023-03-14T05:40:03;4.35;;;0.60;;
30185;SDS011;31152;49.190;8.122;2023-03-14T05:42:32;4.53;;;0.50;;
30185;SDS011;31152;49.190;8.122;2023-03-14T05:44:59;4.15;;;0.80;;
30185;SDS011;31152;49.190;8.122;2023-03-14T05:47:25;7.28;;;1.20;;
30185;SDS011;31152;49.190;8.122;2023-03-14T05:49:52;8.38;;;1.50;;
30185;SDS011;31152;49.190;8.122;2023-03-14T05:52:19;2.95;;;0.60;;
30185;SDS011;31152;49.190;8.122;2023-03-14T05:54:46;4.78;;;0.77;;
30185;SDS011;31152;49.190;8.122;2023-03-14T05:57:12;5.88;;;1.05;;
30185;SDS011;31152;49.190;8.122;2023-03-14T05:59:39;3.72;;;0.60;;
30185;SDS011;31152;49.190;8.122;2023-03-14T06:02:06;2.97;;;0.80;;
30185;SDS011;31152;49.190;8.122;2023-03-14T06:04:33;6.22;;;0.70;;
30185;SDS011;31152;49.190;8.122;2023-03-14T06:07:00;2.97;;;0.60;;
30185;SDS011;31152;49.190;8.122;2023-03-14T06:09:29;2.40;;;0.50;;
30185;SDS011;31152;49.190;8.122;2023-03-14T06:12:00;4.10;;;0.82;;
30185;SDS011;31152;49.190;8.122;2023-03-14T06:14:27;3.55;;;0.80;;
30185;SDS011;31152;49.190;8.122;2023-03-14T06:16:54;4.70;;;1.00;;
30185;SDS011;31152;49.190;8.122;2023-03-14T06:19:20;6.07;;;0.82;;
30185;SDS011;31152;49.190;8.122;2023-03-14T06:21:47;2.97;;;0.52;;
30185;SDS011;31152;49.190;8.122;2023-03-14T06:24:16;5.82;;;0.60;;
30185;SDS011;31152;49.190;8.122;2023-03-14T06:26:43;3.35;;;0.70;;
30185;SDS011;31152;49.190;8.122;2023-03-14T06:29:10;3.25;;;0.70;;
30185;SDS011;31152;49.190;8.122;2023-03-14T06:31:37;6.63;;;1.30;;
30185;SDS011;31152;49.190;8.122;2023-03-14T06:34:03;3.55;;;0.60;;
30185;SDS011;31152;49.190;8.122;2023-03-14T06:36:30;5.85;;;0.60;;
30185;SDS011;31152;49.190;8.122;2023-03-14T06:38:57;1.77;;;0.73;;
30185;SDS011;31152;49.190;8.122;2023-03-14T06:41:26;3.58;;;0.75;;
30185;SDS011;31152;49.190;8.122;2023-03-14T06:43:53;4.75;;;0.80;;
30185;SDS011;31152;49.190;8.122;2023-03-14T06:46:24;5.93;;;0.68;;
30185;SDS011;31152;49.190;8.122;2023-03-14T06:48:53;6.78;;;0.98;;
30185;SDS011;31152;49.190;8.122;2023-03-14T06:51:20;3.65;;;1.00;;
30185;SDS011;31152;49.190;8.122;2023-03-14T06:53:47;4.25;;;0.55;;
30185;SDS011;31152;49.190;8.122;2023-03-14T06:56:15;2.92;;;0.80;;
30185;SDS011;31152;49.190;8.122;2023-03-14T06:58:47;3.25;;;0.60;;
30185;SDS011;31152;49.190;8.122;2023-03-14T07:01:29;4.28;;;0.65;;
30185;SDS011;31152;49.190;8.122;2023-03-14T07:03:57;1.98;;;0.70;;
30185;SDS011;31152;49.190;8.122;2023-03-14T07:06:23;2.88;;;0.70;;
30185;SDS011;31152;49.190;8.122;2023-03-14T07:08:55;5.00;;;0.90;;
30185;SDS011;31152;49.190;8.122;2023-03-14T07:11:22;5.60;;;0.70;;
30185;SDS011;31152;49.190;8.122;2023-03-14T07:13:51;7.47;;;0.93;;
30185;SDS011;31152;49.190;8.122;2023-03-14T07:16:18;8.80;;;0.80;;
30185;SDS011;31152;49.190;8.122;2023-03-14T07:18:46;2.30;;;0.70;;
30185;SDS011;31152;49.190;8.122;2023-03-14T07:21:14;6.20;;;0.93;;
30185;SDS011;31152;49.190;8.122;2023-03-14T07:23:43;3.25;;;1.00;;
30185;SDS011;31152;49.190;8.122;2023-03-14T07:26:10;1.73;;;0.50;;
30185;SDS011;31152;49.190;8.122;2023-03-14T07:28:39;2.30;;;0.47;;
30185;SDS011;31152;49.190;8.122;2023-03-14T07:31:05;3.63;;;0.57;;
30185;SDS011;31152;49.190;8.122;2023-03-14T07:33:32;2.30;;;0.63;;
30185;SDS011;31152;49.190;8.122;2023-03-14T07:35:59;2.70;;;0.98;;
30185;SDS011;31152;49.190;8.122;2023-03-14T07:38:26;3.83;;;0.90;;
30185;SDS011;31152;49.190;8.122;2023-03-14T07:41:00;4.22;;;0.90;;
30185;SDS011;31152;49.190;8.122;2023-03-14T07:43:28;6.75;;;0.90;;
30185;SDS011;31152;49.190;8.122;2023-03-14T07:45:54;5.32;;;0.90;;
30185;SDS011;31152;49.190;8.122;2023-03-14T07:48:24;3.22;;;0.60;;
30185;SDS011;31152;49.190;8.122;2023-03-14T07:50:53;5.28;;;0.70;;
30185;SDS011;31152;49.190;8.122;2023-03-14T07:53:21;3.45;;;0.77;;
30185;SDS011;31152;49.190;8.122;2023-03-14T07:55:49;2.28;;;0.75;;
30185;SDS011;31152;49.190;8.122;2023-03-14T07:58:18;2.97;;;0.70;;
30185;SDS011;31152;49.190;8.122;2023-03-14T08:00:45;4.10;;;0.60;;
30185;SDS011;31152;49.190;8.122;2023-03-14T08:03:11;1.73;;;0.55;;
30185;SDS011;31152;49.190;8.122;2023-03-14T08:05:38;2.00;;;0.50;;
30185;SDS011;31152;49.190;8.122;2023-03-14T08:08:06;1.73;;;0.55;;
30185;SDS011;31152;49.190;8.122;2023-03-14T08:10:32;1.70;;;0.52;;
30185;SDS011;31152;49.190;8.122;2023-03-14T08:13:00;2.40;;;0.68;;
30185;SDS011;31152;49.190;8.122;2023-03-14T08:15:29;2.05;;;0.50;;
30185;SDS011;31152;49.190;8.122;2023-03-14T08:17:56;0.50;;;0.40;;
30185;SDS011;31152;49.190;8.122;2023-03-14T08:20:27;1.23;;;0.40;;
30185;SDS011;31152;49.190;8.122;2023-03-14T08:22:55;1.75;;;0.35;;
30185;SDS011;31152;49.190;8.122;2023-03-14T08:25:25;3.13;;;0.40;;
30185;SDS011;31152;49.190;8.122;2023-03-14T08:27:55;0.82;;;0.20;;
30185;SDS011;31152;49.190;8.122;2023-03-14T08:30:22;3.30;;;0.35;;
30185;SDS011;31152;49.190;8.122;2023-03-14T08:32:49;2.03;;;0.32;;
30185;SDS011;31152;49.190;8.122;2023-03-14T08:35:16;3.50;;;0.52;;
30185;SDS011;31152;49.190;8.122;2023-03-14T08:37:44;0.20;;;0.20;;
30185;SDS011;31152;49.190;8.122;2023-03-14T08:40:11;1.60;;;0.30;;
30185;SDS011;31152;49.190;8.122;2023-03-14T08:42:38;2.13;;;0.70;;
30185;SDS011;31152;49.190;8.122;2023-03-14T08:45:06;2.35;;;0.50;;
30185;SDS011;31152;49.190;8.122;2023-03-14T08:47:37;0.90;;;0.40;;
30185;SDS011;31152;49.190;8.122;2023-03-14T08:50:04;3.05;;;1.15;;
30185;SDS011;31152;49.190;8.122;2023-03-14T08:52:32;2.83;;;0.40;;
30185;SDS011;31152;49.190;8.122;2023-03-14T08:54:59;1.70;;;0.32;;
30185;SDS011;31152;49.190;8.122;2023-03-14T08:57:28;1.27;;;0.40;;
30185;SDS011;31152;49.190;8.122;2023-03-14T08:59:55;1.83;;;0.40;;
30185;SDS011;31152;49.190;8.122;2023-03-14T09:02:23;1.70;;;0.35;;
30185;SDS011;31152;49.190;8.122;2023-03-14T09:04:53;3.90;;;0.50;;
30185;SDS011;31152;49.190;8.122;2023-03-14T09:07:20;0.32;;;0.20;;
30185;SDS011;31152;49.190;8.122;2023-03-14T09:09:47;0.65;;;0.40;;
30185;SDS011;31152;49.190;8.122;2023-03-14T09:12:14;1.25;;;0.40;;
30185;SDS011;31152;49.190;8.122;2023-03-14T09:14:43;1.33;;;0.40;;
30185;SDS011;31152;49.190;8.122;2023-03-14T09:17:12;1.50;;;0.35;;
30185;SDS011;31152;49.190;8.122;2023-03-14T09:19:38;1.92;;;0.35;;
30185;SDS011;31152;49.190;8.122;2023-03-14T09:22:08;3.70;;;0.50;;
30185;SDS011;31152;49.190;8.122;2023-03-14T09:24:35;1.83;;;0.45;;
30185;SDS011;31152;49.190;8.122;2023-03-14T09:27:04;1.52;;;0.30;;
30185;SDS011;31152;49.190;8.122;2023-03-14T09:29:30;2.05;;;0.50;;
30185;SDS011;31152;49.190;8.122;2023-03-14T09:31:59;1.17;;;0.30;;
30185;SDS011;31152;49.190;8.122;2023-03-14T09:34:26;1.35;;;0.30;;
30185;SDS011;31152;49.190;8.122;2023-03-14T09:36:56;0.40;;;0.30;;
30185;SDS011;31152;49.190;8.122;2023-03-14T09:39:23;0.88;;;0.20;;
30185;SDS011;31152;49.190;8.122;2023-03-14T09:41:51;4.13;;;0.40;;
30185;SDS011;31152;49.190;8.122;2023-03-14T09:44:26;1.05;;;0.25;;
30185;SDS011;31152;49.190;8.122;2023-03-14T09:46:57;0.65;;;0.32;;
30185;SDS011;31152;49.190;8.122;2023-03-14T09:49:36;1.55;;;0.22;;
30185;SDS011;31152;49.190;8.122;2023-03-14T09:52:16;0.45;;;0.30;;
30185;SDS011;31152;49.190;8.122;2023-03-14T09:54:46;2.92;;;0.32;;
30185;SDS011;31152;49.190;8.122;2023-03-14T09:57:18;0.98;;;0.30;;
30185;SDS011;31152;49.190;8.122;2023-03-14T09:59:49;3.13;;;1.05;;
30185;SDS011;31152;49.190;8.122;2023-03-14T10:02:19;3.67;;;0.40;;
30185;SDS011;31152;49.190;8.122;2023-03-14T10:04:50;1.65;;;0.40;;
30185;SDS011;31152;49.190;8.122;2023-03-14T10:10:00;0.60;;;0.30;;
30185;SDS011;31152;49.190;8.122;2023-03-14T10:12:30;1.02;;;0.20;;
30185;SDS011;31152;49.190;8.122;2023-03-14T10:15:09;1.88;;;0.40;;
30185;SDS011;31152;49.190;8.122;2023-03-14T10:17:46;1.17;;;0.30;;
30185;SDS011;31152;49.190;8.122;2023-03-14T10:25:43;0.60;;;0.17;;
30185;SDS011;31152;49.190;8.122;2023-03-14T10:28:27;1.83;;;0.30;;
30185;SDS011;31152;49.190;8.122;2023-03-14T10:30:59;0.20;;;0.20;;
30185;SDS011;31152;49.190;8.122;2023-03-14T10:33:27;0.80;;;0.20;;
30185;SDS011;31152;49.190;8.122;2023-03-14T10:36:00;0.80;;;0.32;;
30185;SDS011;31152;49.190;8.122;2023-03-14T10:38:34;1.75;;;0.30;;
30185;SDS011;31152;49.190;8.122;2023-03-14T10:41:01;0.57;;;0.30;;
30185;SDS011;31152;49.190;8.122;2023-03-14T10:43:43;1.73;;;0.17;;
30185;SDS011;31152;49.190;8.122;2023-03-14T10:46:14;2.05;;;0.30;;
30185;SDS011;31152;49.190;8.122;2023-03-14T10:48:43;0.73;;;0.30;;
30185;SDS011;31152;49.190;8.122;2023-03-14T10:51:25;1.85;;;0.40;;
30185;SDS011;31152;49.190;8.122;2023-03-14T10:53:59;1.05;;;0.30;;
30185;SDS011;31152;49.190;8.122;2023-03-14T10:56:36;0.55;;;0.30;;
30185;SDS011;31152;49.190;8.122;2023-03-14T10:59:06;0.80;;;0.20;;
30185;SDS011;31152;49.190;8.122;2023-03-14T11:04:43;0.38;;;0.30;;
30185;SDS011;31152;49.190;8.122;2023-03-14T11:07:36;2.03;;;0.20;;
30185;SDS011;31152;49.190;8.122;2023-03-14T11:10:19;0.60;;;0.20;;
30185;SDS011;31152;49.190;8.122;2023-03-14T11:13:03;1.55;;;0.80;;
30185;SDS011;31152;49.190;8.122;2023-03-14T11:33:09;0.50;;;0.40;;
30185;SDS011;31152;49.190;8.122;2023-03-14T11:35:43;0.40;;;0.30;;
30185;SDS011;31152;49.190;8.122;2023-03-14T11:41:20;1.23;;;0.50;;
30185;SDS011;31152;49.190;8.122;2023-03-14T11:43:55;1.27;;;0.40;;
30185;SDS011;31152;49.190;8.122;2023-03-14T11:46:39;0.73;;;0.40;;
30185;SDS011;31152;49.190;8.122;2023-03-14T11:51:55;1.90;;;0.60;;
30185;SDS011;31152;49.190;8.122;2023-03-14T11:57:09;3.53;;;0.50;;
30185;SDS011;31152;49.190;8.122;2023-03-14T12:02:43;0.80;;;0.60;;
30185;SDS011;31152;49.190;8.122;2023-03-14T12:13:15;2.53;;;0.75;;
30185;SDS011;31152;49.190;8.122;2023-03-14T12:15:50;2.85;;;1.25;;
30185;SDS011;31152;49.190;8.122;2023-03-14T12:18:28;3.75;;;1.08;;
30185;SDS011;31152;49.190;8.122;2023-03-14T12:20:58;3.20;;;0.70;;
30185;SDS011;31152;49.190;8.122;2023-03-14T12:23:28;2.65;;;0.57;;
30185;SDS011;31152;49.190;8.122;2023-03-14T12:28:48;1.63;;;0.80;;
30185;SDS011;31152;49.190;8.122;2023-03-14T12:42:10;4.40;;;0.90;;
30185;SDS011;31152;49.190;8.122;2023-03-14T12:44:51;1.58;;;0.73;;
30185;SDS011;31152;49.190;8.122;2023-03-14T12:49:51;1.75;;;0.57;;
30185;SDS011;31152;49.190;8.122;2023-03-14T12:52:31;2.20;;;0.50;;
30185;SDS011;31152;49.190;8.122;2023-03-14T12:58:19;3.60;;;0.63;;
30185;SDS011;31152;49.190;8.122;2023-03-14T13:00:58;2.63;;;0.60;;
30185;SDS011;31152;49.190;8.122;2023-03-14T13:09:34;1.30;;;0.55;;
30185;SDS011;31152;49.190;8.122;2023-03-14T13:12:15;3.65;;;0.40;;
30185;SDS011;31152;49.190;8.122;2023-03-14T13:14:44;4.47;;;0.70;;
30185;SDS011;31152;49.190;8.122;2023-03-14T13:17:16;1.85;;;0.40;;
30185;SDS011;31152;49.190;8.122;2023-03-14T13:20:06;1.77;;;0.50;;
30185;SDS011;31152;49.190;8.122;2023-03-14T13:22:45;2.30;;;0.45;;
30185;SDS011;31152;49.190;8.122;2023-03-14T13:25:14;2.50;;;0.40;;
30185;SDS011;31152;49.190;8.122;2023-03-14T13:27:42;2.33;;;0.60;;
30185;SDS011;31152;49.190;8.122;2023-03-14T13:30:15;2.78;;;0.77;;
30185;SDS011;31152;49.190;8.122;2023-03-14T13:32:48;2.33;;;0.52;;
30185;SDS011;31152;49.190;8.122;2023-03-14T13:35:27;5.38;;;1.02;;
30185;SDS011;31152;49.190;8.122;2023-03-14T13:37:56;3.78;;;0.70;;
30185;SDS011;31152;49.190;8.122;2023-03-14T13:40:37;3.40;;;0.50;;
30185;SDS011;31152;49.190;8.122;2023-03-14T13:43:15;3.20;;;0.50;;
30185;SDS011;31152;49.190;8.122;2023-03-14T13:46:04;4.13;;;0.60;;
30185;SDS011;31152;49.190;8.122;2023-03-14T13:48:33;3.65;;;0.57;;
30185;SDS011;31152;49.190;8.122;2023-03-14T13:51:04;1.35;;;0.40;;
30185;SDS011;31152;49.190;8.122;2023-03-14T13:53:33;2.80;;;0.93;;
30185;SDS011;31152;49.190;8.122;2023-03-14T13:56:12;1.73;;;0.60;;
30185;SDS011;31152;49.190;8.122;2023-03-14T13:58:40;1.83;;;0.50;;
30185;SDS011;31152;49.190;8.122;2023-03-14T14:04:13;2.88;;;0.70;;
30185;SDS011;31152;49.190;8.122;2023-03-14T14:06:55;4.85;;;0.60;;
30185;SDS011;31152;49.190;8.122;2023-03-14T14:09:28;2.75;;;0.63;;
30185;SDS011;31152;49.190;8.122;2023-03-14T14:12:03;11.02;;;0.70;;
30185;SDS011;31152;49.190;8.122;2023-03-14T14:14:46;4.20;;;0.50;;
30185;SDS011;31152;49.190;8.122;2023-03-14T14:17:20;2.60;;;1.00;;
30185;SDS011;31152;49.190;8.122;2023-03-14T14:19:50;4.43;;;0.70;;
30185;SDS011;31152;49.190;8.122;2023-03-14T14:22:18;2.83;;;0.60;;
30185;SDS011;31152;49.190;8.122;2023-03-14T14:24:46;2.80;;;0.68;;
30185;SDS011;31152;49.190;8.122;2023-03-14T14:27:24;1.52;;;0.50;;
30185;SDS011;31152;49.190;8.122;2023-03-14T14:33:17;3.95;;;0.70;;
30185;SDS011;31152;49.190;8.122;2023-03-14T14:35:52;2.38;;;0.63;;
30185;SDS011;31152;49.190;8.122;2023-03-14T14:38:24;2.10;;;0.50;;
30185;SDS011;31152;49.190;8.122;2023-03-14T14:40:53;4.85;;;0.70;;
30185;SDS011;31152;49.190;8.122;2023-03-14T14:43:27;5.47;;;0.60;;
30185;SDS011;31152;49.190;8.122;2023-03-14T14:45:58;7.40;;;0.85;;
30185;SDS011;31152;49.190;8.122;2023-03-14T14:48:27;3.58;;;0.95;;
30185;SDS011;31152;49.190;8.122;2023-03-14T14:56:47;4.30;;;0.70;;
30185;SDS011;31152;49.190;8.122;2023-03-14T14:58:58;3.25;;;0.65;;
30185;SDS011;31152;49.190;8.122;2023-03-14T15:01:31;4.85;;;1.08;;
30185;SDS011;31152;49.190;8.122;2023-03-14T15:04:04;7.03;;;1.00;;
30185;SDS011;31152;49.190;8.122;2023-03-14T15:06:38;5.38;;;0.80;;
30185;SDS011;31152;49.190;8.122;2023-03-14T15:09:08;3.65;;;0.60;;
30185;SDS011;31152;49.190;8.122;2023-03-14T15:11:37;4.10;;;0.80;;
30185;SDS011;31152;49.190;8.122;2023-03-14T15:14:04;4.72;;;0.80;;
30185;SDS011;31152;49.190;8.122;2023-03-14T15:16:32;5.00;;;0.90;;
30185;SDS011;31152;49.190;8.122;2023-03-14T15:19:03;6.75;;;1.58;;
30185;SDS011;31152;49.190;8.122;2023-03-14T15:21:50;5.70;;;0.80;;
30185;SDS011;31152;49.190;8.122;2023-03-14T15:24:20;4.15;;;0.85;;
30185;SDS011;31152;49.190;8.122;2023-03-14T15:26:48;5.70;;;0.98;;
30185;SDS011;31152;49.190;8.122;2023-03-14T15:29:19;5.72;;;1.17;;
30185;SDS011;31152;49.190;8.122;2023-03-14T15:31:46;4.07;;;0.82;;
30185;SDS011;31152;49.190;8.122;2023-03-14T15:34:13;3.85;;;0.80;;
30185;SDS011;31152;49.190;8.122;2023-03-14T15:36:40;5.22;;;1.63;;
30185;SDS011;31152;49.190;8.122;2023-03-14T15:39:09;3.80;;;0.93;;
30185;SDS011;31152;49.190;8.122;2023-03-14T15:41:36;4.38;;;0.95;;
30185;SDS011;31152;49.190;8.122;2023-03-14T15:44:03;9.73;;;1.13;;
30185;SDS011;31152;49.190;8.122;2023-03-14T15:46:30;6.95;;;1.10;;
30185;SDS011;31152;49.190;8.122;2023-03-14T15:48:57;3.75;;;0.90;;
30185;SDS011;31152;49.190;8.122;2023-03-14T15:51:23;7.97;;;1.35;;
30185;SDS011;31152;49.190;8.122;2023-03-14T15:53:50;5.20;;;0.70;;
30185;SDS011;31152;49.190;8.122;2023-03-14T15:56:18;5.30;;;0.85;;
30185;SDS011;31152;49.190;8.122;2023-03-14T15:58:45;2.70;;;0.70;;
30185;SDS011;31152;49.190;8.122;2023-03-14T16:01:13;6.45;;;0.98;;
30185;SDS011;31152;49.190;8.122;2023-03-14T16:03:43;12.52;;;1.80;;
30185;SDS011;31152;49.190;8.122;2023-03-14T16:06:11;6.32;;;1.35;;
30185;SDS011;31152;49.190;8.122;2023-03-14T16:08:39;5.80;;;0.90;;
30185;SDS011;31152;49.190;8.122;2023-03-14T16:11:05;4.70;;;1.00;;
30185;SDS011;31152;49.190;8.122;2023-03-14T16:13:34;3.72;;;1.10;;
30185;SDS011;31152;49.190;8.122;2023-03-14T16:16:02;9.05;;;1.42;;
30185;SDS011;31152;49.190;8.122;2023-03-14T16:18:34;6.40;;;0.93;;
30185;SDS011;31152;49.190;8.122;2023-03-14T16:21:04;7.50;;;0.85;;
30185;SDS011;31152;49.190;8.122;2023-03-14T16:23:33;8.27;;;1.23;;
30185;SDS011;31152;49.190;8.122;2023-03-14T16:26:04;7.93;;;0.90;;
30185;SDS011;31152;49.190;8.122;2023-03-14T16:28:35;6.15;;;1.17;;
30185;SDS011;31152;49.190;8.122;2023-03-14T16:31:05;7.20;;;1.05;;
30185;SDS011;31152;49.190;8.122;2023-03-14T16:33:37;7.18;;;1.00;;
30185;SDS011;31152;49.190;8.122;2023-03-14T16:36:05;7.40;;;1.10;;
30185;SDS011;31152;49.190;8.122;2023-03-14T16:38:36;10.60;;;1.33;;
30185;SDS011;31152;49.190;8.122;2023-03-14T16:41:08;4.63;;;0.93;;
30185;SDS011;31152;49.190;8.122;2023-03-14T16:43:37;6.72;;;1.20;;